sensor_id;sensor_type;location;lat;lon;timestamp;temperature;humidity
33269;DHT22;19640;50.944;5.260;2023-12-20T00:01:18;7.80;99.90
33269;DHT22;19640;50.944;5.260;2023-12-20T00:03:44;7.70;99.90
33269;DHT22;19640;50.944;5.260;2023-12-20T00:06:10;7.50;99.90
33269;DHT22;19640;50.944;5.260;2023-12-20T00:08:37;7.40;99.90
33269;DHT22;19640;50.944;5.260;2023-12-20T00:11:03;7.20;99.90
33269;DHT22;19640;50.944;5.260;2023-12-20T00:13:29;7.30;99.90
33269;DHT22;19640;50.944;5.260;2023-12-20T00:15:56;7.20;99.90
33269;DHT22;19640;50.944;5.260;2023-12-20T00:18:21;7.20;99.90
33269;DHT22;19640;50.944;5.260;2023-12-20T00:20:48;7.50;99.90
33269;DHT22;19640;50.944;5.260;2023-12-20T00:23:15;7.50;99.90
33269;DHT22;19640;50.944;5.260;2023-12-20T00:25:41;7.40;99.90
33269;DHT22;19640;50.944;5.260;2023-12-20T00:28:07;7.40;99.90
33269;DHT22;19640;50.944;5.260;2023-12-20T00:30:33;7.30;99.90
33269;DHT22;19640;50.944;5.260;2023-12-20T00:32:59;7.30;99.90
33269;DHT22;19640;50.944;5.260;2023-12-20T00:35:25;7.00;99.90
33269;DHT22;19640;50.944;5.260;2023-12-20T00:37:51;7.10;99.90
33269;DHT22;19640;50.944;5.260;2023-12-20T00:40:17;7.20;99.90
33269;DHT22;19640;50.944;5.260;2023-12-20T00:42:42;7.20;99.90
33269;DHT22;19640;50.944;5.260;2023-12-20T00:45:09;7.00;99.90
33269;DHT22;19640;50.944;5.260;2023-12-20T00:47:34;7.10;99.90
33269;DHT22;19640;50.944;5.260;2023-12-20T00:50:00;7.10;99.90
33269;DHT22;19640;50.944;5.260;2023-12-20T00:52:26;7.10;99.90
33269;DHT22;19640;50.944;5.260;2023-12-20T00:54:51;7.10;99.90
33269;DHT22;19640;50.944;5.260;2023-12-20T00:57:17;7.20;99.90
33269;DHT22;19640;50.944;5.260;2023-12-20T00:59:43;7.20;99.90
33269;DHT22;19640;50.944;5.260;2023-12-20T01:02:08;7.20;99.90
33269;DHT22;19640;50.944;5.260;2023-12-20T01:04:35;6.90;99.90
33269;DHT22;19640;50.944;5.260;2023-12-20T01:07:01;6.90;99.90
33269;DHT22;19640;50.944;5.260;2023-12-20T01:09:27;6.90;99.90
33269;DHT22;19640;50.944;5.260;2023-12-20T01:11:53;6.90;99.90
33269;DHT22;19640;50.944;5.260;2023-12-20T01:14:19;6.80;99.90
33269;DHT22;19640;50.944;5.260;2023-12-20T01:16:45;7.00;99.90
33269;DHT22;19640;50.944;5.260;2023-12-20T01:19:11;7.10;99.90
33269;DHT22;19640;50.944;5.260;2023-12-20T01:21:36;7.10;99.90
33269;DHT22;19640;50.944;5.260;2023-12-20T01:24:02;7.00;99.90
33269;DHT22;19640;50.944;5.260;2023-12-20T01:26:29;6.90;99.90
33269;DHT22;19640;50.944;5.260;2023-12-20T01:28:54;6.90;99.90
33269;DHT22;19640;50.944;5.260;2023-12-20T01:31:20;6.90;99.90
33269;DHT22;19640;50.944;5.260;2023-12-20T01:33:46;7.10;99.90
33269;DHT22;19640;50.944;5.260;2023-12-20T01:36:11;7.10;99.90
33269;DHT22;19640;50.944;5.260;2023-12-20T01:38:37;6.80;99.90
33269;DHT22;19640;50.944;5.260;2023-12-20T01:41:03;6.80;99.90
33269;DHT22;19640;50.944;5.260;2023-12-20T01:43:30;6.90;99.90
33269;DHT22;19640;50.944;5.260;2023-12-20T01:45:59;6.90;99.90
33269;DHT22;19640;50.944;5.260;2023-12-20T01:48:26;6.80;99.90
33269;DHT22;19640;50.944;5.260;2023-12-20T01:50:54;6.50;99.90
33269;DHT22;19640;50.944;5.260;2023-12-20T01:53:22;6.40;99.90
33269;DHT22;19640;50.944;5.260;2023-12-20T01:55:50;6.50;99.90
33269;DHT22;19640;50.944;5.260;2023-12-20T01:58:17;6.60;99.90
33269;DHT22;19640;50.944;5.260;2023-12-20T02:00:44;6.60;99.90
33269;DHT22;19640;50.944;5.260;2023-12-20T02:03:10;6.70;99.90
33269;DHT22;19640;50.944;5.260;2023-12-20T02:05:38;6.70;99.90
33269;DHT22;19640;50.944;5.260;2023-12-20T02:08:04;6.80;99.90
33269;DHT22;19640;50.944;5.260;2023-12-20T02:10:31;6.50;99.90
33269;DHT22;19640;50.944;5.260;2023-12-20T02:12:57;6.50;99.90
33269;DHT22;19640;50.944;5.260;2023-12-20T02:15:23;6.60;99.90
33269;DHT22;19640;50.944;5.260;2023-12-20T02:17:49;6.40;99.90
33269;DHT22;19640;50.944;5.260;2023-12-20T02:20:15;6.40;99.90
33269;DHT22;19640;50.944;5.260;2023-12-20T02:22:40;6.50;99.90
33269;DHT22;19640;50.944;5.260;2023-12-20T02:25:06;6.20;99.90
33269;DHT22;19640;50.944;5.260;2023-12-20T02:27:32;6.20;99.90
33269;DHT22;19640;50.944;5.260;2023-12-20T02:29:58;6.30;99.90
33269;DHT22;19640;50.944;5.260;2023-12-20T02:32:24;6.30;99.90
33269;DHT22;19640;50.944;5.260;2023-12-20T02:34:54;6.30;99.90
33269;DHT22;19640;50.944;5.260;2023-12-20T02:37:20;6.40;99.90
33269;DHT22;19640;50.944;5.260;2023-12-20T02:39:46;6.40;99.90
33269;DHT22;19640;50.944;5.260;2023-12-20T02:42:11;6.40;99.90
33269;DHT22;19640;50.944;5.260;2023-12-20T02:44:37;6.20;99.90
33269;DHT22;19640;50.944;5.260;2023-12-20T02:47:03;6.10;99.90
33269;DHT22;19640;50.944;5.260;2023-12-20T02:49:29;6.10;99.90
33269;DHT22;19640;50.944;5.260;2023-12-20T02:51:54;6.00;99.90
33269;DHT22;19640;50.944;5.260;2023-12-20T02:54:20;6.00;99.90
33269;DHT22;19640;50.944;5.260;2023-12-20T02:56:46;5.90;99.90
33269;DHT22;19640;50.944;5.260;2023-12-20T02:59:12;5.80;99.90
33269;DHT22;19640;50.944;5.260;2023-12-20T03:01:45;5.80;99.90
33269;DHT22;19640;50.944;5.260;2023-12-20T03:04:12;5.90;99.90
33269;DHT22;19640;50.944;5.260;2023-12-20T03:06:38;5.90;99.90
33269;DHT22;19640;50.944;5.260;2023-12-20T03:09:04;5.80;99.90
33269;DHT22;19640;50.944;5.260;2023-12-20T03:11:30;5.90;99.90
33269;DHT22;19640;50.944;5.260;2023-12-20T03:13:56;5.90;99.90
33269;DHT22;19640;50.944;5.260;2023-12-20T03:16:21;6.00;99.90
33269;DHT22;19640;50.944;5.260;2023-12-20T03:18:47;6.00;99.90
33269;DHT22;19640;50.944;5.260;2023-12-20T03:21:13;6.00;99.90
33269;DHT22;19640;50.944;5.260;2023-12-20T03:23:38;6.10;99.90
33269;DHT22;19640;50.944;5.260;2023-12-20T03:26:07;6.20;99.90
33269;DHT22;19640;50.944;5.260;2023-12-20T03:28:33;6.40;99.90
33269;DHT22;19640;50.944;5.260;2023-12-20T03:30:59;6.40;99.90
33269;DHT22;19640;50.944;5.260;2023-12-20T03:33:24;6.40;99.90
33269;DHT22;19640;50.944;5.260;2023-12-20T03:35:50;6.20;99.90
33269;DHT22;19640;50.944;5.260;2023-12-20T03:38:16;6.10;99.90
33269;DHT22;19640;50.944;5.260;2023-12-20T03:40:42;5.90;99.90
33269;DHT22;19640;50.944;5.260;2023-12-20T03:43:07;5.80;99.90
33269;DHT22;19640;50.944;5.260;2023-12-20T03:45:33;5.80;99.90
33269;DHT22;19640;50.944;5.260;2023-12-20T03:47:59;6.00;99.90
33269;DHT22;19640;50.944;5.260;2023-12-20T03:50:26;5.90;99.90
33269;DHT22;19640;50.944;5.260;2023-12-20T03:52:52;5.90;99.90
33269;DHT22;19640;50.944;5.260;2023-12-20T03:55:18;6.10;99.90
33269;DHT22;19640;50.944;5.260;2023-12-20T03:57:44;6.10;99.90
33269;DHT22;19640;50.944;5.260;2023-12-20T04:00:10;6.10;99.90
33269;DHT22;19640;50.944;5.260;2023-12-20T04:02:39;6.10;99.90
33269;DHT22;19640;50.944;5.260;2023-12-20T04:05:06;6.20;99.90
33269;DHT22;19640;50.944;5.260;2023-12-20T04:07:32;6.30;99.90
33269;DHT22;19640;50.944;5.260;2023-12-20T04:09:58;6.50;99.90
33269;DHT22;19640;50.944;5.260;2023-12-20T04:12:24;6.40;99.90
33269;DHT22;19640;50.944;5.260;2023-12-20T04:14:50;6.40;99.90
33269;DHT22;19640;50.944;5.260;2023-12-20T04:17:16;6.30;99.90
33269;DHT22;19640;50.944;5.260;2023-12-20T04:19:42;6.50;99.90
33269;DHT22;19640;50.944;5.260;2023-12-20T04:22:08;6.60;99.90
33269;DHT22;19640;50.944;5.260;2023-12-20T04:24:34;6.50;99.90
33269;DHT22;19640;50.944;5.260;2023-12-20T04:27:00;6.70;99.90
33269;DHT22;19640;50.944;5.260;2023-12-20T04:29:25;6.90;99.90
33269;DHT22;19640;50.944;5.260;2023-12-20T04:31:51;6.70;99.90
33269;DHT22;19640;50.944;5.260;2023-12-20T04:34:17;6.80;99.90
33269;DHT22;19640;50.944;5.260;2023-12-20T04:36:43;6.70;99.90
33269;DHT22;19640;50.944;5.260;2023-12-20T04:39:10;6.60;99.90
33269;DHT22;19640;50.944;5.260;2023-12-20T04:41:35;6.60;99.90
33269;DHT22;19640;50.944;5.260;2023-12-20T04:44:01;6.50;99.90
33269;DHT22;19640;50.944;5.260;2023-12-20T04:46:27;6.50;99.90
33269;DHT22;19640;50.944;5.260;2023-12-20T04:48:53;6.50;99.90
33269;DHT22;19640;50.944;5.260;2023-12-20T04:51:19;6.60;99.90
33269;DHT22;19640;50.944;5.260;2023-12-20T04:53:44;6.60;99.90
33269;DHT22;19640;50.944;5.260;2023-12-20T04:56:10;6.60;99.90
33269;DHT22;19640;50.944;5.260;2023-12-20T04:58:36;6.40;99.90
33269;DHT22;19640;50.944;5.260;2023-12-20T05:01:02;6.40;99.90
33269;DHT22;19640;50.944;5.260;2023-12-20T05:03:28;6.20;99.90
33269;DHT22;19640;50.944;5.260;2023-12-20T05:05:54;6.20;99.90
33269;DHT22;19640;50.944;5.260;2023-12-20T05:08:20;6.40;99.90
33269;DHT22;19640;50.944;5.260;2023-12-20T05:10:45;6.30;99.90
33269;DHT22;19640;50.944;5.260;2023-12-20T05:13:11;6.30;99.90
33269;DHT22;19640;50.944;5.260;2023-12-20T05:15:37;6.10;99.90
33269;DHT22;19640;50.944;5.260;2023-12-20T05:18:02;6.20;99.90
33269;DHT22;19640;50.944;5.260;2023-12-20T05:20:28;6.20;99.90
33269;DHT22;19640;50.944;5.260;2023-12-20T05:22:54;6.20;99.90
33269;DHT22;19640;50.944;5.260;2023-12-20T05:25:19;6.10;99.90
33269;DHT22;19640;50.944;5.260;2023-12-20T05:27:45;6.00;99.90
33269;DHT22;19640;50.944;5.260;2023-12-20T05:30:11;6.00;99.90
33269;DHT22;19640;50.944;5.260;2023-12-20T05:32:37;6.00;99.90
33269;DHT22;19640;50.944;5.260;2023-12-20T05:35:03;6.00;99.90
33269;DHT22;19640;50.944;5.260;2023-12-20T05:37:28;6.00;99.90
33269;DHT22;19640;50.944;5.260;2023-12-20T05:39:54;5.90;99.90
33269;DHT22;19640;50.944;5.260;2023-12-20T05:42:20;5.90;99.90
33269;DHT22;19640;50.944;5.260;2023-12-20T05:44:45;5.80;99.90
33269;DHT22;19640;50.944;5.260;2023-12-20T05:47:11;5.70;99.90
33269;DHT22;19640;50.944;5.260;2023-12-20T05:49:36;5.80;99.90
33269;DHT22;19640;50.944;5.260;2023-12-20T05:52:02;5.70;99.90
33269;DHT22;19640;50.944;5.260;2023-12-20T05:54:28;5.70;99.90
33269;DHT22;19640;50.944;5.260;2023-12-20T05:56:54;5.60;99.90
33269;DHT22;19640;50.944;5.260;2023-12-20T05:59:19;5.50;99.90
33269;DHT22;19640;50.944;5.260;2023-12-20T06:01:45;5.50;99.90
33269;DHT22;19640;50.944;5.260;2023-12-20T06:04:10;5.40;99.90
33269;DHT22;19640;50.944;5.260;2023-12-20T06:06:41;5.30;99.90
33269;DHT22;19640;50.944;5.260;2023-12-20T06:09:07;5.30;99.90
33269;DHT22;19640;50.944;5.260;2023-12-20T06:11:33;5.40;99.90
33269;DHT22;19640;50.944;5.260;2023-12-20T06:13:59;5.40;99.90
33269;DHT22;19640;50.944;5.260;2023-12-20T06:16:24;5.50;99.90
33269;DHT22;19640;50.944;5.260;2023-12-20T06:18:50;5.50;99.90
33269;DHT22;19640;50.944;5.260;2023-12-20T06:21:15;5.40;99.90
33269;DHT22;19640;50.944;5.260;2023-12-20T06:23:41;5.70;99.90
33269;DHT22;19640;50.944;5.260;2023-12-20T06:26:07;5.70;99.90
33269;DHT22;19640;50.944;5.260;2023-12-20T06:28:33;5.70;99.90
33269;DHT22;19640;50.944;5.260;2023-12-20T06:30:58;5.80;99.90
33269;DHT22;19640;50.944;5.260;2023-12-20T06:33:26;5.80;99.90
33269;DHT22;19640;50.944;5.260;2023-12-20T06:35:51;5.70;99.90
33269;DHT22;19640;50.944;5.260;2023-12-20T06:38:18;5.70;99.90
33269;DHT22;19640;50.944;5.260;2023-12-20T06:40:44;5.80;99.90
33269;DHT22;19640;50.944;5.260;2023-12-20T06:43:10;6.00;99.90
33269;DHT22;19640;50.944;5.260;2023-12-20T06:45:36;6.00;99.90
33269;DHT22;19640;50.944;5.260;2023-12-20T06:48:01;5.90;99.90
33269;DHT22;19640;50.944;5.260;2023-12-20T06:50:27;5.80;99.90
33269;DHT22;19640;50.944;5.260;2023-12-20T06:52:53;5.80;99.90
33269;DHT22;19640;50.944;5.260;2023-12-20T06:55:19;5.90;99.90
33269;DHT22;19640;50.944;5.260;2023-12-20T06:57:44;5.90;99.90
33269;DHT22;19640;50.944;5.260;2023-12-20T07:00:11;6.10;99.90
33269;DHT22;19640;50.944;5.260;2023-12-20T07:02:37;6.10;99.90
33269;DHT22;19640;50.944;5.260;2023-12-20T07:05:03;6.00;99.90
33269;DHT22;19640;50.944;5.260;2023-12-20T07:07:29;6.00;99.90
33269;DHT22;19640;50.944;5.260;2023-12-20T07:09:55;5.90;99.90
33269;DHT22;19640;50.944;5.260;2023-12-20T07:12:21;5.90;99.90
33269;DHT22;19640;50.944;5.260;2023-12-20T07:14:47;5.90;99.90
33269;DHT22;19640;50.944;5.260;2023-12-20T07:17:13;5.90;99.90
33269;DHT22;19640;50.944;5.260;2023-12-20T07:19:41;6.00;99.90
33269;DHT22;19640;50.944;5.260;2023-12-20T07:22:07;5.90;99.90
33269;DHT22;19640;50.944;5.260;2023-12-20T07:24:33;5.70;99.90
33269;DHT22;19640;50.944;5.260;2023-12-20T07:27:00;5.70;99.90
33269;DHT22;19640;50.944;5.260;2023-12-20T07:29:28;5.90;99.90
33269;DHT22;19640;50.944;5.260;2023-12-20T07:31:55;6.00;99.90
33269;DHT22;19640;50.944;5.260;2023-12-20T07:34:21;6.10;99.90
33269;DHT22;19640;50.944;5.260;2023-12-20T07:36:47;6.00;99.90
33269;DHT22;19640;50.944;5.260;2023-12-20T07:39:14;6.00;99.90
33269;DHT22;19640;50.944;5.260;2023-12-20T07:41:39;5.90;99.90
33269;DHT22;19640;50.944;5.260;2023-12-20T07:44:06;5.80;99.90
33269;DHT22;19640;50.944;5.260;2023-12-20T07:46:31;5.60;99.90
33269;DHT22;19640;50.944;5.260;2023-12-20T07:48:57;5.60;99.90
33269;DHT22;19640;50.944;5.260;2023-12-20T07:51:23;5.60;99.90
33269;DHT22;19640;50.944;5.260;2023-12-20T07:53:48;5.60;99.90
33269;DHT22;19640;50.944;5.260;2023-12-20T07:56:18;5.50;99.90
33269;DHT22;19640;50.944;5.260;2023-12-20T07:58:45;5.50;99.90
33269;DHT22;19640;50.944;5.260;2023-12-20T08:01:11;5.60;99.90
33269;DHT22;19640;50.944;5.260;2023-12-20T08:03:38;5.50;99.90
33269;DHT22;19640;50.944;5.260;2023-12-20T08:06:04;5.50;99.90
33269;DHT22;19640;50.944;5.260;2023-12-20T08:08:29;5.30;99.90
33269;DHT22;19640;50.944;5.260;2023-12-20T08:10:55;5.30;99.90
33269;DHT22;19640;50.944;5.260;2023-12-20T08:13:23;5.30;99.90
33269;DHT22;19640;50.944;5.260;2023-12-20T08:15:54;5.30;99.90
33269;DHT22;19640;50.944;5.260;2023-12-20T08:18:21;5.40;99.90
33269;DHT22;19640;50.944;5.260;2023-12-20T08:20:48;5.50;99.90
33269;DHT22;19640;50.944;5.260;2023-12-20T08:23:15;5.50;99.90
33269;DHT22;19640;50.944;5.260;2023-12-20T08:25:40;5.60;99.90
33269;DHT22;19640;50.944;5.260;2023-12-20T08:28:06;5.70;99.90
33269;DHT22;19640;50.944;5.260;2023-12-20T08:30:32;5.80;99.90
33269;DHT22;19640;50.944;5.260;2023-12-20T08:33:00;5.90;99.90
33269;DHT22;19640;50.944;5.260;2023-12-20T08:35:26;5.90;99.90
33269;DHT22;19640;50.944;5.260;2023-12-20T08:37:51;5.90;99.90
33269;DHT22;19640;50.944;5.260;2023-12-20T08:40:17;6.00;99.90
33269;DHT22;19640;50.944;5.260;2023-12-20T08:42:43;6.00;99.90
33269;DHT22;19640;50.944;5.260;2023-12-20T08:45:10;6.20;99.90
33269;DHT22;19640;50.944;5.260;2023-12-20T08:47:35;6.20;99.90
33269;DHT22;19640;50.944;5.260;2023-12-20T08:50:02;6.20;99.90
33269;DHT22;19640;50.944;5.260;2023-12-20T08:52:28;6.20;99.90
33269;DHT22;19640;50.944;5.260;2023-12-20T08:54:55;6.20;99.90
33269;DHT22;19640;50.944;5.260;2023-12-20T08:57:20;6.10;99.90
33269;DHT22;19640;50.944;5.260;2023-12-20T08:59:50;6.20;99.90
33269;DHT22;19640;50.944;5.260;2023-12-20T09:02:16;6.30;99.90
33269;DHT22;19640;50.944;5.260;2023-12-20T09:04:42;6.40;99.90
33269;DHT22;19640;50.944;5.260;2023-12-20T09:07:24;6.50;99.90
33269;DHT22;19640;50.944;5.260;2023-12-20T09:09:50;6.50;99.90
33269;DHT22;19640;50.944;5.260;2023-12-20T09:12:18;6.40;99.90
33269;DHT22;19640;50.944;5.260;2023-12-20T09:14:45;6.30;99.90
33269;DHT22;19640;50.944;5.260;2023-12-20T09:17:11;6.30;99.90
33269;DHT22;19640;50.944;5.260;2023-12-20T09:19:37;6.30;99.90
33269;DHT22;19640;50.944;5.260;2023-12-20T09:22:04;6.40;99.90
33269;DHT22;19640;50.944;5.260;2023-12-20T09:24:30;6.40;99.90
33269;DHT22;19640;50.944;5.260;2023-12-20T09:26:56;6.30;99.90
33269;DHT22;19640;50.944;5.260;2023-12-20T09:29:23;6.30;99.90
33269;DHT22;19640;50.944;5.260;2023-12-20T09:31:48;6.30;99.90
33269;DHT22;19640;50.944;5.260;2023-12-20T09:34:15;6.50;99.90
33269;DHT22;19640;50.944;5.260;2023-12-20T09:36:42;6.50;99.90
33269;DHT22;19640;50.944;5.260;2023-12-20T09:39:15;6.60;99.90
33269;DHT22;19640;50.944;5.260;2023-12-20T09:41:45;6.70;99.90
33269;DHT22;19640;50.944;5.260;2023-12-20T09:44:16;6.70;99.90
33269;DHT22;19640;50.944;5.260;2023-12-20T09:46:45;6.80;99.90
33269;DHT22;19640;50.944;5.260;2023-12-20T09:49:12;7.00;99.90
33269;DHT22;19640;50.944;5.260;2023-12-20T09:51:39;7.10;99.90
33269;DHT22;19640;50.944;5.260;2023-12-20T09:54:06;7.10;99.90
33269;DHT22;19640;50.944;5.260;2023-12-20T09:56:31;7.10;99.90
33269;DHT22;19640;50.944;5.260;2023-12-20T09:58:57;7.20;99.90
33269;DHT22;19640;50.944;5.260;2023-12-20T10:01:28;7.30;99.90
33269;DHT22;19640;50.944;5.260;2023-12-20T10:03:54;7.30;99.90
33269;DHT22;19640;50.944;5.260;2023-12-20T10:06:21;7.30;99.90
33269;DHT22;19640;50.944;5.260;2023-12-20T10:08:47;7.30;99.90
33269;DHT22;19640;50.944;5.260;2023-12-20T10:11:13;7.30;99.90
33269;DHT22;19640;50.944;5.260;2023-12-20T10:13:40;7.20;99.90
33269;DHT22;19640;50.944;5.260;2023-12-20T10:16:09;7.30;99.90
33269;DHT22;19640;50.944;5.260;2023-12-20T10:18:35;7.40;99.90
33269;DHT22;19640;50.944;5.260;2023-12-20T10:21:01;7.50;99.90
33269;DHT22;19640;50.944;5.260;2023-12-20T10:23:30;7.40;99.90
33269;DHT22;19640;50.944;5.260;2023-12-20T10:25:59;7.40;99.90
33269;DHT22;19640;50.944;5.260;2023-12-20T10:28:25;7.40;99.90
33269;DHT22;19640;50.944;5.260;2023-12-20T10:30:54;7.40;99.90
33269;DHT22;19640;50.944;5.260;2023-12-20T10:33:26;7.30;99.90
33269;DHT22;19640;50.944;5.260;2023-12-20T10:35:52;7.40;99.90
33269;DHT22;19640;50.944;5.260;2023-12-20T10:38:18;7.50;99.90
33269;DHT22;19640;50.944;5.260;2023-12-20T10:40:45;7.50;99.90
33269;DHT22;19640;50.944;5.260;2023-12-20T10:43:11;7.40;99.90
33269;DHT22;19640;50.944;5.260;2023-12-20T10:45:37;7.50;99.90
33269;DHT22;19640;50.944;5.260;2023-12-20T10:48:04;7.60;99.90
33269;DHT22;19640;50.944;5.260;2023-12-20T10:50:31;7.60;99.90
33269;DHT22;19640;50.944;5.260;2023-12-20T10:53:00;7.50;99.90
33269;DHT22;19640;50.944;5.260;2023-12-20T10:55:26;7.60;99.90
33269;DHT22;19640;50.944;5.260;2023-12-20T10:57:53;7.80;99.90
33269;DHT22;19640;50.944;5.260;2023-12-20T11:00:21;7.90;99.90
33269;DHT22;19640;50.944;5.260;2023-12-20T11:02:49;7.90;99.90
33269;DHT22;19640;50.944;5.260;2023-12-20T11:05:33;8.00;99.90
33269;DHT22;19640;50.944;5.260;2023-12-20T11:08:22;8.00;99.90
33269;DHT22;19640;50.944;5.260;2023-12-20T11:11:00;8.00;99.90
33269;DHT22;19640;50.944;5.260;2023-12-20T11:13:53;8.10;99.90
33269;DHT22;19640;50.944;5.260;2023-12-20T11:16:19;8.00;99.90
33269;DHT22;19640;50.944;5.260;2023-12-20T11:18:45;8.00;99.90
33269;DHT22;19640;50.944;5.260;2023-12-20T11:21:11;8.10;99.90
33269;DHT22;19640;50.944;5.260;2023-12-20T11:23:37;8.10;99.90
33269;DHT22;19640;50.944;5.260;2023-12-20T11:26:03;8.10;99.90
33269;DHT22;19640;50.944;5.260;2023-12-20T11:28:29;8.20;99.90
33269;DHT22;19640;50.944;5.260;2023-12-20T11:30:58;8.10;99.90
33269;DHT22;19640;50.944;5.260;2023-12-20T11:33:27;8.00;99.90
33269;DHT22;19640;50.944;5.260;2023-12-20T11:35:59;8.10;99.90
33269;DHT22;19640;50.944;5.260;2023-12-20T11:38:25;8.00;99.90
33269;DHT22;19640;50.944;5.260;2023-12-20T11:40:54;8.00;99.90
33269;DHT22;19640;50.944;5.260;2023-12-20T11:43:39;8.20;99.90
33269;DHT22;19640;50.944;5.260;2023-12-20T11:46:09;8.20;99.90
33269;DHT22;19640;50.944;5.260;2023-12-20T11:48:37;8.20;99.90
33269;DHT22;19640;50.944;5.260;2023-12-20T11:51:09;7.90;99.90
33269;DHT22;19640;50.944;5.260;2023-12-20T11:53:35;7.90;99.90
33269;DHT22;19640;50.944;5.260;2023-12-20T11:56:03;8.00;99.90
33269;DHT22;19640;50.944;5.260;2023-12-20T11:58:29;7.90;99.90
33269;DHT22;19640;50.944;5.260;2023-12-20T12:00:56;8.00;99.90
33269;DHT22;19640;50.944;5.260;2023-12-20T12:03:22;8.10;99.90
33269;DHT22;19640;50.944;5.260;2023-12-20T12:05:49;8.20;99.90
33269;DHT22;19640;50.944;5.260;2023-12-20T12:08:15;8.20;99.90
33269;DHT22;19640;50.944;5.260;2023-12-20T12:10:43;8.00;99.90
33269;DHT22;19640;50.944;5.260;2023-12-20T12:13:10;8.10;99.90
33269;DHT22;19640;50.944;5.260;2023-12-20T12:15:36;8.10;99.90
33269;DHT22;19640;50.944;5.260;2023-12-20T12:18:03;8.20;99.90
33269;DHT22;19640;50.944;5.260;2023-12-20T12:20:30;8.10;99.90
33269;DHT22;19640;50.944;5.260;2023-12-20T12:23:00;7.90;99.90
33269;DHT22;19640;50.944;5.260;2023-12-20T12:25:26;7.80;99.90
33269;DHT22;19640;50.944;5.260;2023-12-20T12:27:53;7.90;99.90
33269;DHT22;19640;50.944;5.260;2023-12-20T12:30:18;7.90;99.90
33269;DHT22;19640;50.944;5.260;2023-12-20T12:32:45;7.80;99.90
33269;DHT22;19640;50.944;5.260;2023-12-20T12:35:10;7.90;99.90
33269;DHT22;19640;50.944;5.260;2023-12-20T12:37:40;8.00;99.90
33269;DHT22;19640;50.944;5.260;2023-12-20T12:40:13;8.00;99.90
33269;DHT22;19640;50.944;5.260;2023-12-20T12:42:42;8.00;99.90
33269;DHT22;19640;50.944;5.260;2023-12-20T12:45:08;8.10;99.90
33269;DHT22;19640;50.944;5.260;2023-12-20T12:47:34;8.00;99.90
33269;DHT22;19640;50.944;5.260;2023-12-20T12:50:00;8.10;99.90
33269;DHT22;19640;50.944;5.260;2023-12-20T12:52:25;8.20;99.90
33269;DHT22;19640;50.944;5.260;2023-12-20T12:54:52;8.10;99.90
33269;DHT22;19640;50.944;5.260;2023-12-20T12:57:18;8.20;99.90
33269;DHT22;19640;50.944;5.260;2023-12-20T12:59:45;8.20;99.90
33269;DHT22;19640;50.944;5.260;2023-12-20T13:02:14;8.20;99.90
33269;DHT22;19640;50.944;5.260;2023-12-20T13:04:41;8.20;99.90
33269;DHT22;19640;50.944;5.260;2023-12-20T13:07:07;8.20;99.90
33269;DHT22;19640;50.944;5.260;2023-12-20T13:09:33;8.20;99.90
33269;DHT22;19640;50.944;5.260;2023-12-20T13:12:00;8.20;99.90
33269;DHT22;19640;50.944;5.260;2023-12-20T13:14:29;8.20;99.90
33269;DHT22;19640;50.944;5.260;2023-12-20T13:16:54;8.20;99.90
33269;DHT22;19640;50.944;5.260;2023-12-20T13:19:21;8.40;99.90
33269;DHT22;19640;50.944;5.260;2023-12-20T13:21:47;8.40;99.90
33269;DHT22;19640;50.944;5.260;2023-12-20T13:24:12;8.30;99.90
33269;DHT22;19640;50.944;5.260;2023-12-20T13:26:38;8.40;99.90
33269;DHT22;19640;50.944;5.260;2023-12-20T13:29:03;8.50;99.90
33269;DHT22;19640;50.944;5.260;2023-12-20T13:31:29;8.30;99.90
33269;DHT22;19640;50.944;5.260;2023-12-20T13:33:55;8.30;99.90
33269;DHT22;19640;50.944;5.260;2023-12-20T13:36:21;8.50;99.90
33269;DHT22;19640;50.944;5.260;2023-12-20T13:38:47;8.50;99.90
33269;DHT22;19640;50.944;5.260;2023-12-20T13:41:12;8.40;99.90
33269;DHT22;19640;50.944;5.260;2023-12-20T13:43:38;8.30;99.90
33269;DHT22;19640;50.944;5.260;2023-12-20T13:46:04;8.30;99.90
33269;DHT22;19640;50.944;5.260;2023-12-20T13:48:29;8.30;99.90
33269;DHT22;19640;50.944;5.260;2023-12-20T13:50:55;8.30;99.90
33269;DHT22;19640;50.944;5.260;2023-12-20T13:53:21;8.30;99.90
33269;DHT22;19640;50.944;5.260;2023-12-20T13:55:46;8.30;99.90
33269;DHT22;19640;50.944;5.260;2023-12-20T13:58:12;8.20;99.90
33269;DHT22;19640;50.944;5.260;2023-12-20T14:00:38;8.30;99.90
33269;DHT22;19640;50.944;5.260;2023-12-20T14:03:04;8.40;99.90
33269;DHT22;19640;50.944;5.260;2023-12-20T14:05:30;8.20;99.90
33269;DHT22;19640;50.944;5.260;2023-12-20T14:07:56;8.20;99.90
33269;DHT22;19640;50.944;5.260;2023-12-20T14:10:26;8.10;99.90
33269;DHT22;19640;50.944;5.260;2023-12-20T14:12:55;8.10;99.90
33269;DHT22;19640;50.944;5.260;2023-12-20T14:15:20;8.20;99.90
33269;DHT22;19640;50.944;5.260;2023-12-20T14:17:46;8.30;99.90
33269;DHT22;19640;50.944;5.260;2023-12-20T14:20:12;8.30;99.90
33269;DHT22;19640;50.944;5.260;2023-12-20T14:22:41;8.20;99.90
33269;DHT22;19640;50.944;5.260;2023-12-20T14:25:16;8.30;99.90
33269;DHT22;19640;50.944;5.260;2023-12-20T14:27:42;8.40;99.90
33269;DHT22;19640;50.944;5.260;2023-12-20T14:30:11;8.20;99.90
33269;DHT22;19640;50.944;5.260;2023-12-20T14:32:37;8.30;99.90
33269;DHT22;19640;50.944;5.260;2023-12-20T14:35:08;8.30;99.90
33269;DHT22;19640;50.944;5.260;2023-12-20T14:37:34;8.20;99.90
33269;DHT22;19640;50.944;5.260;2023-12-20T14:40:00;8.40;99.90
33269;DHT22;19640;50.944;5.260;2023-12-20T14:42:26;8.40;99.90
33269;DHT22;19640;50.944;5.260;2023-12-20T14:44:52;8.30;99.90
33269;DHT22;19640;50.944;5.260;2023-12-20T14:47:19;8.30;99.90
33269;DHT22;19640;50.944;5.260;2023-12-20T14:49:45;8.40;99.90
33269;DHT22;19640;50.944;5.260;2023-12-20T14:52:13;8.40;99.90
33269;DHT22;19640;50.944;5.260;2023-12-20T14:54:39;8.30;99.90
33269;DHT22;19640;50.944;5.260;2023-12-20T14:57:04;8.20;99.90
33269;DHT22;19640;50.944;5.260;2023-12-20T14:59:30;8.20;99.90
33269;DHT22;19640;50.944;5.260;2023-12-20T15:01:56;8.30;99.90
33269;DHT22;19640;50.944;5.260;2023-12-20T15:04:21;8.40;99.90
33269;DHT22;19640;50.944;5.260;2023-12-20T15:06:56;8.40;99.90
33269;DHT22;19640;50.944;5.260;2023-12-20T15:09:22;8.60;99.90
33269;DHT22;19640;50.944;5.260;2023-12-20T15:11:47;8.50;99.90
33269;DHT22;19640;50.944;5.260;2023-12-20T15:14:13;8.40;99.90
33269;DHT22;19640;50.944;5.260;2023-12-20T15:16:44;8.60;99.90
33269;DHT22;19640;50.944;5.260;2023-12-20T15:19:10;8.50;99.90
33269;DHT22;19640;50.944;5.260;2023-12-20T15:21:36;8.60;99.90
33269;DHT22;19640;50.944;5.260;2023-12-20T15:24:06;8.60;99.90
33269;DHT22;19640;50.944;5.260;2023-12-20T15:26:38;8.60;99.90
33269;DHT22;19640;50.944;5.260;2023-12-20T15:29:04;8.60;99.90
33269;DHT22;19640;50.944;5.260;2023-12-20T15:31:30;8.50;99.90
33269;DHT22;19640;50.944;5.260;2023-12-20T15:34:01;8.50;99.90
33269;DHT22;19640;50.944;5.260;2023-12-20T15:36:26;8.60;99.90
33269;DHT22;19640;50.944;5.260;2023-12-20T15:38:52;8.50;99.90
33269;DHT22;19640;50.944;5.260;2023-12-20T15:41:18;8.50;99.90